Owasa, IA

3:59 PM CDT on March 27, 2015 (GMT -0500)
Jensen Farm | | Change Station
CLOSE
Current Station
Personal Weather Station
Location: Iowa Falls, IA
Elevation: 1129 ft
Nearby Weather Stations

Elev 1129 ft 42.50 °N, 93.20 °W | Updated 26 seconds ago

Clear
Clear
36.3 °F
Feels Like 36 °F
N
1.0
Wind Variable Wind from WNW
Gusts 6.0 mph

Today
High -- | Low -- °F
--% Chance of Precip.
Yesterday
High -- | Low -- °F
Precip. -- in
7:04 AM 7:33 PM
First Quarter, 55% visible
Pressure 30.18 in
Visibility 10.0 miles
Clouds Clear
Windchill 36 °F
Dew Point 14 °F
Humidity 39%
Rainfall 0.00 in
Snow Depth Not available.
UV 5 out of 12
Pollen 2.70 out of 12
Air Quality Not available.
Flu Activity Not available.
METAR KIFA 272035Z AUTO 35006KT 10SM CLR 03/M10 A3018 RMK AO2 T00251105

More Conditions Fewer Conditions

Pressure 30.18 in
Visibility 10.0 miles
Clouds Clear
Windchill 36 °F
Dew Point 14 °F
Humidity 39%
Rainfall 0.00 in
Snow Depth Not available.
UV 5 out of 12
Pollen 2.70 out of 12
Air Quality Not available.
Flu Activity Not available.
METAR KIFA 272035Z AUTO 35006KT 10SM CLR 03/M10 A3018 RMK AO2 T00251105

More Conditions Fewer Conditions

10-Day Weather Forecast

Almanac

Astronomy

Mar. 27, 2015 Rise Set
Actual Time
Civil Twilight
Nautical Twilight
Astronomical Twilight
Moon
Length of Visible Light
Length of Day
Tomorrow will be .
, % of the Moon is Illuminated

Today's Extremes

State Highs State Lows

Community

WunderPhotos

Upload Photos

1,808,822 photos uploaded!

WunderBlogs® & News

Nearby

Air Quality

  Air Quality AQ Index Pollutant
Not available.

Snow Depth

Station Depth Elevation

Earthquake Activity

City Distance Mag. Time & Date
Minimum magnitude displayed is 2.5.

Coastal Water Temperatures

Place Temperature

Stations

Nearby Weather Stations

Station Location Temp. Windchill Dew Point Humidity Wind Precip. Elev Updated Type